Terminal Aerodrome Forecast
Issued by NWS

Home | Current Version | Previous Version | Text Only | Print | Product List | Glossary On
Versions: 1 2 3 4 5 6 7 8 9 10 11 12 13 14 15 16
000
FTUS46 KSEW 182329
TAFBLI
TAF
KBLI 182329Z 1900/1924 14025G35KT 4SM -RA BR BKN020 OVC060
     FM190300 17012G18KT P6SM -RA BKN025 OVC060
     FM190600 18012KT P6SM BKN025 BKN060
     FM191800 16012G18KT P6SM SCT030 BKN040=

USA.gov is the U.S. government's official web portal to all federal, state and local government web resources and services.